Time;durP1;ratioP1;P1;durP2;ratioP2;P2;SDS_P1;SDS_P2;PMS_P1;PMS_P2;Temp;Humidity;BMP_temperature;BMP_pressure;BME280_temperature;BME280_humidity;BME280_pressure;Samples;Min_cycle;Max_cycle;Signal;HPM_P1;HPM_P2
2022/05/26 00:01:34;;;;;;;7.20;4.10;;;;;;100345.48;;;;107613;1276;30895;-29
2022/05/26 00:04:01;;;;;;;5.40;3.80;;;;;;100344.81;;;;107578;1277;28671;-29
2022/05/26 00:06:29;;;;;;;5.90;3.80;;;;;;100341.14;;;;107636;1277;29302;-30
2022/05/26 00:08:57;;;;;;;5.40;4.10;;;;;;100337.40;;;;107623;1276;28643;-29
2022/05/26 00:11:36;;;;;;;5.30;3.80;;;;;;100339.23;;;;107626;1276;28662;-29
2022/05/26 00:14:07;;;;;;;4.90;3.70;;;;;;100342.31;;;;107562;1276;28739;-29
2022/05/26 00:16:43;;;;;;;5.70;3.80;;;;;;100345.56;;;;107635;1276;28515;-29
2022/05/26 00:19:12;;;;;;;4.70;3.60;;;;;;100344.15;;;;107619;1276;28904;-29
2022/05/26 00:21:39;;;;;;;5.50;3.60;;;;;;100343.91;;;;107571;1276;27472;-29
2022/05/26 00:24:07;;;;;;;5.00;3.60;;;;;;100345.57;;;;107590;1276;28655;-29
2022/05/26 00:26:34;;;;;;;5.10;3.70;;;;;;100341.61;;;;107643;1276;26169;-29
2022/05/26 00:29:00;;;;;;;5.40;3.60;;;;;;100343.16;;;;107604;1276;26084;-29
2022/05/26 00:31:27;;;;;;;5.20;3.70;;;;;;100346.91;;;;107606;1276;27692;-29
2022/05/26 00:33:54;;;;;;;4.90;3.40;;;;;;100346.77;;;;107594;1276;28770;-29
2022/05/26 00:36:37;;;;;;;4.70;3.40;;;;;;100345.84;;;;107594;1276;28887;-29
2022/05/26 00:39:13;;;;;;;5.10;3.20;;;;;;100350.41;;;;107598;1276;27671;-30
2022/05/26 00:41:47;;;;;;;5.00;3.40;;;;;;100356.64;;;;107607;1276;28753;-30
2022/05/26 00:44:15;;;;;;;5.60;3.40;;;;;;100353.34;;;;107645;1276;28709;-30
2022/05/26 00:46:50;;;;;;;5.20;3.30;;;;;;100351.85;;;;107610;1276;27661;-30
2022/05/26 00:49:23;;;;;;;4.80;3.50;;;;;;100351.65;;;;107635;1276;28566;-30
2022/05/26 00:51:50;;;;;;;;;;;;;;100348.66;;;;107652;1276;30914;-30
2022/05/26 00:54:23;;;;;;;4.70;3.40;;;;;;100355.42;;;;107636;1276;28170;-30
2022/05/26 00:56:57;;;;;;;4.70;3.20;;;;;;100354.88;;;;107624;1276;28875;-30
2022/05/26 00:59:41;;;;;;;4.90;3.20;;;;;;100362.68;;;;107585;1276;30936;-30
2022/05/26 01:02:08;;;;;;;4.50;2.90;;;;;;100358.94;;;;107646;1276;29217;-30
2022/05/26 01:04:41;;;;;;;4.50;3.00;;;;;;100364.58;;;;107571;1276;30902;-30
2022/05/26 01:07:15;;;;;;;;;;;;;;100365.99;;;;107688;1277;28519;-30
2022/05/26 01:09:42;;;;;;;4.50;3.00;;;;;;100361.31;;;;107648;1276;28207;-30
2022/05/26 01:12:09;;;;;;;4.80;3.00;;;;;;100360.06;;;;107639;1276;28689;-30
2022/05/26 01:14:41;;;;;;;4.30;2.70;;;;;;100357.56;;;;107614;1276;30725;-30
2022/05/26 01:17:41;;;;;;;4.80;2.90;;;;;;100355.16;;;;107592;1276;30273;-30
2022/05/26 01:20:52;;;;;;;5.20;3.20;;;;;;100355.58;;;;107637;1276;28680;-30
2022/05/26 01:24:00;;;;;;;5.00;2.90;;;;;;100353.61;;;;107554;1277;28869;-28
2022/05/26 01:26:51;;;;;;;3.80;2.50;;;;;;100350.10;;;;107657;1276;27358;-29
2022/05/26 01:29:54;;;;;;;4.10;2.50;;;;;;100348.13;;;;107612;1276;29334;-29
2022/05/26 01:32:41;;;;;;;4.20;2.90;;;;;;100352.80;;;;107606;1276;26114;-30
2022/05/26 01:35:29;;;;;;;4.70;2.70;;;;;;100357.05;;;;107627;1276;28532;-30
2022/05/26 01:38:19;;;;;;;4.00;2.60;;;;;;100357.23;;;;107630;1276;30914;-30
2022/05/26 01:40:58;;;;;;;4.10;2.70;;;;;;100363.15;;;;107635;1276;27841;-29
2022/05/26 01:43:47;;;;;;;4.30;3.00;;;;;;100363.88;;;;107626;1276;27518;-29
2022/05/26 01:46:32;;;;;;;4.70;2.70;;;;;;100363.07;;;;107630;1276;30880;-29
2022/05/26 01:49:10;;;;;;;4.60;2.80;;;;;;100363.66;;;;107624;1277;28633;-29
2022/05/26 01:51:42;;;;;;;4.20;2.60;;;;;;100362.09;;;;107645;1276;28674;-29
2022/05/26 01:54:20;;;;;;;4.00;2.60;;;;;;100358.55;;;;107655;1276;28625;-29
2022/05/26 01:57:01;;;;;;;3.90;2.20;;;;;;100360.86;;;;107644;1276;28731;-29
2022/05/26 01:59:46;;;;;;;4.00;2.40;;;;;;100355.20;;;;107620;1276;28878;-29
2022/05/26 02:02:26;;;;;;;4.50;2.60;;;;;;100355.45;;;;107558;1277;27934;-30
2022/05/26 02:05:01;;;;;;;4.40;2.40;;;;;;100354.10;;;;107577;1276;30214;-30
2022/05/26 02:07:45;;;;;;;4.20;2.40;;;;;;100355.36;;;;107621;1277;26083;-29
2022/05/26 02:10:26;;;;;;;4.90;2.60;;;;;;100355.92;;;;107620;1276;28621;-30
2022/05/26 02:13:03;;;;;;;3.90;2.50;;;;;;100355.54;;;;107629;1276;31308;-30
2022/05/26 02:15:42;;;;;;;4.10;2.50;;;;;;100356.52;;;;107635;1276;27880;-30
2022/05/26 02:18:22;;;;;;;4.30;2.10;;;;;;100356.08;;;;107640;1276;29749;-31
2022/05/26 02:21:09;;;;;;;4.10;2.30;;;;;;100356.88;;;;107635;1276;28464;-30
2022/05/26 02:24:13;;;;;;;3.80;2.20;;;;;;100358.50;;;;107648;1276;28670;-30
2022/05/26 02:26:39;;;;;;;3.80;2.20;;;;;;100361.54;;;;107632;1276;28234;-28
2022/05/26 02:31:53;;;;;;;3.80;2.00;;;;;;100366.22;;;;107633;1276;28690;-30
2022/05/26 02:34:21;;;;;;;4.30;2.40;;;;;;100365.23;;;;107560;1277;28635;-29
2022/05/26 02:36:54;;;;;;;4.10;2.40;;;;;;100360.70;;;;107671;1276;28734;-30
2022/05/26 02:39:20;;;;;;;4.10;2.20;;;;;;100362.70;;;;107646;1276;28551;-29
2022/05/26 02:41:47;;;;;;;4.00;2.10;;;;;;100364.48;;;;107634;1276;30847;-29
2022/05/26 02:44:14;;;;;;;4.40;2.50;;;;;;100365.96;;;;107612;1277;31137;-29
2022/05/26 02:47:06;;;;;;;4.20;2.20;;;;;;100369.87;;;;107607;1277;29555;-29
2022/05/26 02:50:24;;;;;;;3.70;2.00;;;;;;100366.84;;;;107640;1276;28711;-29
2022/05/26 02:53:06;;;;;;;3.40;2.10;;;;;;100367.63;;;;107648;1276;28652;-29
2022/05/26 02:56:09;;;;;;;3.90;2.10;;;;;;100367.08;;;;107643;1276;26071;-29
2022/05/26 02:58:59;;;;;;;3.90;2.10;;;;;;100369.33;;;;107622;1276;27493;-29
2022/05/26 03:01:44;;;;;;;3.60;2.10;;;;;;100368.95;;;;107573;1277;30641;-30
2022/05/26 03:04:22;;;;;;;4.10;2.30;;;;;;100368.45;;;;107574;1278;28695;-29
2022/05/26 03:06:59;;;;;;;4.00;2.10;;;;;;100365.30;;;;107616;1277;30903;-29
2022/05/26 03:09:26;;;;;;;3.80;2.30;;;;;;100363.59;;;;107635;1276;31668;-29
2022/05/26 03:11:58;;;;;;;3.60;2.10;;;;;;100364.55;;;;107644;1276;26982;-29
2022/05/26 03:14:26;;;;;;;3.80;2.10;;;;;;100366.30;;;;107664;1276;28376;-30
2022/05/26 03:16:53;;;;;;;3.40;1.90;;;;;;100367.64;;;;107652;1276;26116;-29
2022/05/26 03:19:20;;;;;;;4.10;2.20;;;;;;100368.77;;;;107673;1276;26548;-30
2022/05/26 03:21:48;;;;;;;4.00;2.20;;;;;;100365.80;;;;107634;1276;28849;-29
2022/05/26 03:24:15;;;;;;;3.60;2.20;;;;;;100363.80;;;;107634;1277;28882;-30
2022/05/26 03:26:42;;;;;;;3.80;2.40;;;;;;100365.33;;;;107650;1277;28351;-27
2022/05/26 03:29:08;;;;;;;3.40;2.10;;;;;;100366.66;;;;107640;1277;30741;-29
2022/05/26 03:31:35;;;;;;;3.70;2.00;;;;;;100369.55;;;;107628;1276;28779;-29
2022/05/26 03:42:18;;;;;;;3.60;2.00;;;;;;100365.21;;;;107685;1277;28492;-29
2022/05/26 03:44:48;;;;;;;3.70;2.20;;;;;;100365.31;;;;107560;1277;28670;-29
2022/05/26 03:47:14;;;;;;;3.50;2.00;;;;;;100364.23;;;;107589;1280;27492;-29
2022/05/26 03:49:41;;;;;;;3.90;2.40;;;;;;100367.59;;;;107645;1276;28411;-29
2022/05/26 03:52:08;;;;;;;3.50;2.10;;;;;;100372.58;;;;107639;1276;26430;-29
2022/05/26 03:54:35;;;;;;;4.00;2.00;;;;;;100375.48;;;;107557;1277;30892;-32
2022/05/26 03:57:03;;;;;;;4.00;1.90;;;;;;100378.14;;;;107559;1276;27514;-29
2022/05/26 03:59:30;;;;;;;3.40;2.00;;;;;;100376.86;;;;107580;1277;28641;-29
2022/05/26 04:01:57;;;;;;;3.90;2.10;;;;;;100375.14;;;;107667;1276;28644;-29
2022/05/26 04:04:23;;;;;;;3.40;1.90;;;;;;100379.68;;;;107609;1276;27391;-29
2022/05/26 04:06:50;;;;;;;3.60;2.00;;;;;;100373.52;;;;107628;1276;30770;-29
2022/05/26 04:09:18;;;;;;;3.50;1.80;;;;;;100374.35;;;;107637;1277;28732;-29
2022/05/26 04:11:45;;;;;;;4.00;2.10;;;;;;100375.56;;;;107657;1276;28658;-29
2022/05/26 04:14:11;;;;;;;3.40;2.00;;;;;;100378.17;;;;107659;1276;29429;-29
2022/05/26 04:16:38;;;;;;;3.40;2.00;;;;;;100384.58;;;;107619;1277;26106;-29
2022/05/26 04:19:05;;;;;;;4.00;2.00;;;;;;100379.23;;;;107653;1276;28775;-29
2022/05/26 04:21:32;;;;;;;3.60;1.90;;;;;;100379.92;;;;107640;1276;28856;-29
2022/05/26 04:23:58;;;;;;;3.80;2.10;;;;;;100381.92;;;;107649;1277;28711;-29
2022/05/26 04:26:25;;;;;;;3.10;1.80;;;;;;100383.53;;;;107652;1277;27812;-29
2022/05/26 04:28:52;;;;;;;3.70;2.10;;;;;;100380.55;;;;107573;1277;30774;-29
2022/05/26 04:31:18;;;;;;;3.40;1.80;;;;;;100377.77;;;;107649;1276;30402;-29
2022/05/26 04:33:45;;;;;;;4.30;2.00;;;;;;100374.20;;;;107640;1277;27395;-29
2022/05/26 04:36:12;;;;;;;4.40;2.10;;;;;;100376.80;;;;107656;1276;31404;-29
2022/05/26 04:38:39;;;;;;;4.10;2.10;;;;;;100377.91;;;;107654;1276;30221;-29
2022/05/26 04:41:07;;;;;;;3.70;1.90;;;;;;100374.39;;;;107649;1276;27431;-29
2022/05/26 04:43:34;;;;;;;4.40;2.10;;;;;;100372.58;;;;107674;1277;26442;-29
2022/05/26 04:46:02;;;;;;;3.80;1.90;;;;;;100370.02;;;;107644;1276;28078;-29
2022/05/26 04:48:29;;;;;;;3.90;2.10;;;;;;100371.66;;;;107652;1277;30420;-29
2022/05/26 04:50:56;;;;;;;3.60;1.90;;;;;;100372.52;;;;107645;1276;28844;-29
2022/05/26 04:53:22;;;;;;;3.80;2.00;;;;;;100370.06;;;;107617;1277;27415;-29
2022/05/26 04:55:54;;;;;;;3.80;2.10;;;;;;100370.73;;;;107617;1277;30762;-29
2022/05/26 04:58:22;;;;;;;3.40;2.00;;;;;;100371.23;;;;107561;1278;28723;-29
2022/05/26 05:00:49;;;;;;;3.50;2.00;;;;;;100370.54;;;;107644;1276;29864;-29
2022/05/26 05:03:17;;;;;;;3.70;2.10;;;;;;100370.58;;;;107691;1276;28128;-29
2022/05/26 05:05:44;;;;;;;3.50;1.90;;;;;;100368.44;;;;107647;1276;28671;-29
2022/05/26 05:08:11;;;;;;;3.80;2.00;;;;;;100369.41;;;;107578;1277;26203;-30
2022/05/26 05:10:37;;;;;;;4.40;2.60;;;;;;100369.48;;;;107640;1276;30530;-30
2022/05/26 05:13:05;;;;;;;3.60;2.10;;;;;;100374.39;;;;107662;1276;28692;-30
2022/05/26 05:15:39;;;;;;;4.50;2.70;;;;;;100373.89;;;;107668;1276;28673;-30
2022/05/26 05:18:06;;;;;;;3.30;1.90;;;;;;100376.19;;;;107632;1276;28739;-30
2022/05/26 05:20:34;;;;;;;3.80;2.40;;;;;;100380.64;;;;107633;1276;28669;-28
2022/05/26 05:23:05;;;;;;;4.20;2.70;;;;;;100382.42;;;;107636;1276;28725;-29
2022/05/26 05:25:37;;;;;;;4.00;2.50;;;;;;100384.98;;;;107469;1277;228773;-27
2022/05/26 05:28:18;;;;;;;4.80;2.80;;;;;;100385.02;;;;107573;1276;28725;-30
2022/05/26 05:30:59;;;;;;;4.10;2.70;;;;;;100386.20;;;;107628;1276;28695;-30
2022/05/26 05:33:50;;;;;;;4.80;2.50;;;;;;100387.41;;;;107654;1276;28003;-29
2022/05/26 05:36:25;;;;;;;4.90;2.90;;;;;;100383.63;;;;107618;1276;28653;-32
2022/05/26 05:38:51;;;;;;;4.30;2.90;;;;;;100385.29;;;;107585;1278;29593;-29
2022/05/26 05:41:20;;;;;;;4.50;2.90;;;;;;100386.50;;;;107636;1277;28183;-29
2022/05/26 05:43:48;;;;;;;4.20;2.80;;;;;;100383.01;;;;107557;1280;29203;-29
2022/05/26 05:46:15;;;;;;;4.30;2.80;;;;;;100378.95;;;;107662;1276;30367;-29
2022/05/26 05:48:44;;;;;;;4.00;2.80;;;;;;100374.64;;;;107629;1276;28785;-29
2022/05/26 05:51:12;;;;;;;4.20;2.90;;;;;;100373.87;;;;107650;1277;27728;-29
2022/05/26 05:53:39;;;;;;;4.50;2.80;;;;;;100376.20;;;;107629;1277;27747;-29
2022/05/26 05:56:06;;;;;;;4.80;2.90;;;;;;100388.98;;;;107659;1276;30635;-29
2022/05/26 05:58:33;;;;;;;4.10;2.90;;;;;;100392.50;;;;107622;1277;28652;-29
2022/05/26 06:00:59;;;;;;;4.80;3.50;;;;;;100392.73;;;;107555;1277;29329;-29
2022/05/26 06:03:35;;;;;;;4.40;2.80;;;;;;100387.72;;;;107641;1276;27696;-29
2022/05/26 06:06:03;;;;;;;4.60;3.00;;;;;;100384.25;;;;107704;1276;27701;-29
2022/05/26 06:08:30;;;;;;;4.20;3.00;;;;;;100380.96;;;;107687;1276;28652;-29
2022/05/26 06:10:58;;;;;;;4.50;2.80;;;;;;100382.88;;;;107566;1278;27366;-29
2022/05/26 06:13:26;;;;;;;5.10;3.40;;;;;;100384.68;;;;107634;1276;28691;-29
2022/05/26 06:15:54;;;;;;;4.60;2.90;;;;;;100381.80;;;;107627;1276;28710;-29
2022/05/26 06:18:20;;;;;;;4.40;3.00;;;;;;100384.77;;;;107628;1276;30842;-29
2022/05/26 06:20:47;;;;;;;4.60;2.90;;;;;;100385.19;;;;107548;1277;28663;-29
2022/05/26 06:23:17;;;;;;;4.80;2.90;;;;;;100384.29;;;;107620;1276;27677;-29
2022/05/26 06:25:44;;;;;;;4.40;3.00;;;;;;100385.77;;;;107632;1277;27568;-29
2022/05/26 06:30:55;;;;;;;4.30;3.10;;;;;;100383.74;;;;107642;1276;28805;-29
2022/05/26 06:38:58;;;;;;;4.70;3.10;;;;;;100374.08;;;;107644;1276;28591;-29
2022/05/26 06:44:10;;;;;;;5.10;3.30;;;;;;100375.06;;;;107610;1277;29236;-29
2022/05/26 06:46:37;;;;;;;4.60;3.20;;;;;;100368.52;;;;107626;1276;27376;-29
2022/05/26 06:49:03;;;;;;;5.30;3.50;;;;;;100372.05;;;;107618;1276;28668;-29
2022/05/26 06:51:31;;;;;;;6.10;3.20;;;;;;100366.89;;;;107614;1277;26138;-29
2022/05/26 06:53:57;;;;;;;4.90;3.30;;;;;;100364.34;;;;107639;1276;28809;-30
2022/05/26 06:56:24;;;;;;;6.10;3.30;;;;;;100358.84;;;;107614;1277;28768;-29
2022/05/26 06:58:51;;;;;;;4.70;3.30;;;;;;100358.03;;;;107623;1276;27626;-29
2022/05/26 07:01:18;;;;;;;6.00;3.70;;;;;;100357.40;;;;107628;1276;28829;-29
2022/05/26 07:03:44;;;;;;;5.10;3.20;;;;;;100351.89;;;;107622;1276;28597;-29
2022/05/26 07:06:37;;;;;;;5.00;3.60;;;;;;100348.43;;;;107561;1278;30669;-29
2022/05/26 07:09:04;;;;;;;5.10;3.10;;;;;;100348.72;;;;107611;1276;27740;-29
2022/05/26 07:11:32;;;;;;;6.40;3.10;;;;;;100349.19;;;;107594;1277;27858;-29
2022/05/26 07:13:59;;;;;;;5.00;3.40;;;;;;100348.45;;;;107472;1276;28834;-29
2022/05/26 07:16:25;;;;;;;5.70;3.30;;;;;;100349.36;;;;107615;1276;30658;-29
2022/05/26 07:18:54;;;;;;;5.50;3.10;;;;;;100347.14;;;;107613;1276;28668;-30
2022/05/26 07:21:21;;;;;;;4.80;3.20;;;;;;100344.52;;;;107636;1277;30886;-30
2022/05/26 07:23:48;;;;;;;4.50;3.10;;;;;;100341.36;;;;107599;1277;28725;-30
2022/05/26 07:26:14;;;;;;;4.70;3.00;;;;;;100344.20;;;;107610;1277;30757;-30
2022/05/26 07:28:42;;;;;;;5.00;3.10;;;;;;100347.22;;;;107603;1277;27570;-30
2022/05/26 07:31:11;;;;;;;4.90;3.20;;;;;;100346.59;;;;107623;1277;27689;-30
2022/05/26 07:33:38;;;;;;;4.40;3.00;;;;;;100344.06;;;;107584;1277;27586;-29
2022/05/26 07:36:08;;;;;;;4.50;3.20;;;;;;100343.45;;;;107618;1276;26287;-29
2022/05/26 07:41:24;;;;;;;4.40;3.10;;;;;;100341.86;;;;107652;1277;27517;-29
2022/05/26 07:43:59;;;;;;;4.40;2.80;;;;;;100341.31;;;;107571;1277;27602;-30
2022/05/26 07:46:26;;;;;;;4.60;3.30;;;;;;100341.05;;;;107597;1278;28787;-29
2022/05/26 07:48:53;;;;;;;4.60;3.10;;;;;;100340.87;;;;107664;1277;30775;-29
2022/05/26 07:51:21;;;;;;;4.80;3.00;;;;;;100341.48;;;;107619;1276;29905;-29
2022/05/26 07:53:48;;;;;;;4.40;2.80;;;;;;100334.79;;;;107601;1276;27669;-29
2022/05/26 07:56:15;;;;;;;4.60;2.90;;;;;;100337.87;;;;107600;1277;28825;-29
2022/05/26 07:58:43;;;;;;;4.50;2.90;;;;;;100339.43;;;;107618;1277;28900;-29
2022/05/26 08:01:11;;;;;;;4.50;2.90;;;;;;100339.37;;;;107594;1277;30776;-29
2022/05/26 08:03:38;;;;;;;4.50;3.20;;;;;;100337.91;;;;107657;1277;27257;-29
2022/05/26 08:06:06;;;;;;;5.00;3.30;;;;;;100336.98;;;;107629;1277;27735;-29
2022/05/26 08:08:34;;;;;;;4.20;2.80;;;;;;100332.96;;;;107645;1276;27368;-29
2022/05/26 08:11:01;;;;;;;4.90;2.90;;;;;;100332.77;;;;107635;1277;28632;-29
2022/05/26 08:13:28;;;;;;;4.50;3.00;;;;;;100331.86;;;;107588;1277;28508;-29
2022/05/26 08:15:54;;;;;;;4.50;2.80;;;;;;100328.52;;;;107626;1277;28640;-29
2022/05/26 08:18:21;;;;;;;5.00;3.00;;;;;;100329.75;;;;107599;1276;28578;-29
2022/05/26 08:20:48;;;;;;;4.50;3.20;;;;;;100327.13;;;;107555;1277;28651;-29
2022/05/26 08:23:14;;;;;;;4.50;2.70;;;;;;100326.89;;;;107615;1277;27721;-29
2022/05/26 08:25:41;;;;;;;3.80;2.60;;;;;;100328.35;;;;107612;1276;28672;-29
2022/05/26 08:28:07;;;;;;;5.20;3.10;;;;;;100323.23;;;;107588;1274;30622;-28
2022/05/26 08:30:34;;;;;;;3.90;2.50;;;;;;100323.48;;;;107593;1277;28341;-29
2022/05/26 08:33:01;;;;;;;6.20;2.90;;;;;;100323.66;;;;107615;1277;28677;-29
2022/05/26 08:35:27;;;;;;;3.80;2.50;;;;;;100325.27;;;;107619;1276;30920;-29
2022/05/26 08:41:59;;;;;;;4.80;2.80;;;;;;100322.05;;;;107449;1278;30675;-31
2022/05/26 08:44:34;;;;;;;4.00;2.60;;;;;;100320.33;;;;107480;1278;28701;-30
2022/05/26 08:47:10;;;;;;;4.30;2.60;;;;;;100325.44;;;;107511;1278;28818;-29
2022/05/26 08:49:42;;;;;;;4.40;2.30;;;;;;100325.71;;;;107538;1278;31012;-29
2022/05/26 08:52:44;;;;;;;4.20;2.20;;;;;;100322.48;;;;107488;1278;27962;-29
2022/05/26 08:55:22;;;;;;;4.70;2.40;;;;;;100326.45;;;;107268;1278;28693;-29
2022/05/26 08:58:16;;;;;;;5.10;2.10;;;;;;100323.45;;;;107489;1278;28564;-28
2022/05/26 09:00:47;;;;;;;4.00;2.00;;;;;;100319.54;;;;107433;1280;28548;-30
2022/05/26 09:03:33;;;;;;;3.10;1.70;;;;;;100323.72;;;;107469;1278;29656;-30
2022/05/26 09:06:09;;;;;;;4.40;1.80;;;;;;100325.70;;;;107442;1277;27446;-28
2022/05/26 09:14:38;;;;;;;2.80;1.60;;;;;;100318.60;;;;107563;1278;27732;-28
2022/05/26 09:17:10;;;;;;;3.70;1.70;;;;;;100319.99;;;;107452;1277;28892;-29
2022/05/26 09:19:42;;;;;;;3.90;1.80;;;;;;100317.59;;;;107509;1278;28698;-28
2022/05/26 09:22:30;;;;;;;4.00;1.70;;;;;;100308.34;;;;107557;1277;28630;-29
2022/05/26 09:24:59;;;;;;;3.90;1.70;;;;;;100309.94;;;;107499;1278;28223;-29
2022/05/26 09:27:35;;;;;;;3.90;1.60;;;;;;100311.84;;;;107551;1278;27755;-29
2022/05/26 09:30:27;;;;;;;2.80;1.50;;;;;;100313.92;;;;107540;1278;28869;-29
2022/05/26 09:32:55;;;;;;;3.40;1.40;;;;;;100316.34;;;;107477;1277;27588;-28
2022/05/26 09:35:31;;;;;;;3.70;1.20;;;;;;100318.23;;;;107483;1280;28668;-29
2022/05/26 09:38:02;;;;;;;3.00;1.30;;;;;;100311.42;;;;107471;1278;27476;-29
2022/05/26 09:40:36;;;;;;;3.90;1.20;;;;;;100308.92;;;;107533;1278;27574;-29
2022/05/26 09:43:23;;;;;;;2.60;1.50;;;;;;100311.78;;;;107532;1277;28613;-28
2022/05/26 09:45:53;;;;;;;2.90;1.20;;;;;;100315.70;;;;107509;1277;28709;-29
2022/05/26 09:48:36;;;;;;;3.40;1.30;;;;;;100310.16;;;;107497;1279;27992;-27
2022/05/26 09:51:34;;;;;;;3.00;1.10;;;;;;100313.67;;;;107530;1277;28732;-27
2022/05/26 09:54:25;;;;;;;2.60;1.00;;;;;;100307.89;;;;107404;1280;29681;-29
2022/05/26 09:56:52;;;;;;;2.70;1.10;;;;;;100305.48;;;;107470;1278;29106;-29
2022/05/26 09:59:34;;;;;;;2.70;1.20;;;;;;100301.77;;;;107465;1282;30526;-29
2022/05/26 10:02:27;;;;;;;2.70;1.00;;;;;;100299.73;;;;107464;1282;30718;-29
2022/05/26 10:05:09;;;;;;;1.60;0.70;;;;;;100302.55;;;;107513;1278;27776;-29
2022/05/26 10:08:06;;;;;;;2.30;0.90;;;;;;100304.77;;;;107509;1277;29463;-29
2022/05/26 10:11:06;;;;;;;2.20;1.00;;;;;;100302.64;;;;107522;1278;27240;-29
2022/05/26 10:14:32;;;;;;;1.70;0.90;;;;;;100302.19;;;;107526;1278;30878;-29
2022/05/26 10:17:40;;;;;;;1.90;0.80;;;;;;100304.00;;;;107301;1278;27227;-30
2022/05/26 10:20:10;;;;;;;2.20;1.00;;;;;;100303.60;;;;107510;1277;28784;-28
2022/05/26 10:23:17;;;;;;;3.00;0.80;;;;;;100303.13;;;;107530;1278;28773;-29
2022/05/26 10:26:22;;;;;;;2.70;1.00;;;;;;100298.27;;;;107546;1278;29508;-29
2022/05/26 10:29:14;;;;;;;1.70;0.80;;;;;;100301.17;;;;107517;1277;26311;-29
2022/05/26 10:32:32;;;;;;;1.80;0.90;;;;;;100296.58;;;;107447;1278;27394;-29
2022/05/26 10:35:24;;;;;;;2.00;0.80;;;;;;100301.15;;;;107151;1278;31673;-29
2022/05/26 10:38:23;;;;;;;1.80;0.80;;;;;;100298.66;;;;107524;1277;27815;-29
2022/05/26 10:41:20;;;;;;;1.70;0.80;;;;;;100298.71;;;;107530;1278;28821;-29
2022/05/26 10:43:53;;;;;;;3.50;1.40;;;;;;100301.20;;;;107461;1278;28641;-29
2022/05/26 10:46:22;;;;;;;2.00;0.90;;;;;;100297.61;;;;107545;1277;27939;-29
2022/05/26 10:49:05;;;;;;;1.70;0.70;;;;;;100303.47;;;;107379;1278;28662;-29
2022/05/26 10:52:10;;;;;;;2.40;1.00;;;;;;100301.53;;;;107458;1278;26114;-28
2022/05/26 10:54:50;;;;;;;3.40;0.80;;;;;;100304.69;;;;107287;1281;28764;-28
2022/05/26 10:57:33;;;;;;;2.50;1.00;;;;;;100301.58;;;;107533;1278;30622;-28
2022/05/26 11:00:18;;;;;;;2.20;0.90;;;;;;100310.70;;;;107536;1278;29538;-28
2022/05/26 11:02:54;;;;;;;2.40;0.90;;;;;;100307.97;;;;107468;1281;28840;-28
2022/05/26 11:06:05;;;;;;;1.20;0.50;;;;;;100303.17;;;;107493;1278;28527;-28
2022/05/26 11:08:53;;;;;;;2.40;1.00;;;;;;100311.45;;;;107470;1278;27744;-28
2022/05/26 11:11:27;;;;;;;2.20;0.90;;;;;;100313.88;;;;107456;1278;27433;-28
2022/05/26 11:17:23;;;;;;;2.40;1.00;;;;;;100304.88;;;;107462;1277;28627;-28
2022/05/26 11:20:49;;;;;;;2.60;1.00;;;;;;100303.91;;;;107521;1277;30756;-28
2022/05/26 11:23:17;;;;;;;2.40;0.80;;;;;;100302.77;;;;107491;1278;28812;-29
2022/05/26 11:25:56;;;;;;;2.20;1.00;;;;;;100300.09;;;;107480;1278;30921;-29
2022/05/26 11:28:34;;;;;;;1.80;0.90;;;;;;100292.08;;;;107492;1278;28449;-29
2022/05/26 11:36:49;;;;;;;1.70;0.80;;;;;;100291.80;;;;107511;1278;28585;-29
2022/05/26 11:39:39;;;;;;;2.50;1.00;;;;;;100295.15;;;;107492;1277;26339;-30
2022/05/26 11:42:09;;;;;;;2.60;1.10;;;;;;100294.87;;;;107518;1277;27930;-30
2022/05/26 11:44:43;;;;;;;2.10;0.90;;;;;;100288.45;;;;107373;1280;28706;-30
2022/05/26 11:47:31;;;;;;;1.80;0.90;;;;;;100285.77;;;;107536;1277;30790;-30
2022/05/26 11:49:58;;;;;;;2.90;0.90;;;;;;100280.48;;;;107489;1278;29253;-30
2022/05/26 11:52:34;;;;;;;3.00;1.00;;;;;;100272.11;;;;107534;1277;28735;-29
2022/05/26 11:55:03;;;;;;;2.70;1.10;;;;;;100273.20;;;;107542;1277;30849;-29
2022/05/26 11:57:33;;;;;;;2.40;1.00;;;;;;100266.30;;;;107535;1277;27783;-30
2022/05/26 12:00:45;;;;;;;2.40;0.90;;;;;;100255.65;;;;107466;1278;26171;-30
2022/05/26 12:03:23;;;;;;;3.40;1.40;;;;;;100259.33;;;;107508;1277;28819;-30
2022/05/26 12:06:15;;;;;;;2.30;0.90;;;;;;100266.53;;;;107521;1277;28714;-29
2022/05/26 12:09:21;;;;;;;2.50;0.90;;;;;;100263.81;;;;107464;1277;26451;-29
2022/05/26 12:12:07;;;;;;;2.70;1.10;;;;;;100263.42;;;;107415;1277;28653;-29
2022/05/26 12:14:53;;;;;;;2.00;0.90;;;;;;100260.09;;;;107503;1277;30514;-28
2022/05/26 12:17:49;;;;;;;2.70;0.90;;;;;;100265.68;;;;107415;1281;29179;-29
2022/05/26 12:20:15;;;;;;;1.80;0.80;;;;;;100259.34;;;;107549;1277;30648;-29
2022/05/26 12:22:55;;;;;;;1.80;0.90;;;;;;100261.59;;;;107542;1277;26100;-29
2022/05/26 12:25:33;;;;;;;1.90;0.70;;;;;;100255.68;;;;107540;1277;27388;-29
2022/05/26 12:28:27;;;;;;;1.70;0.70;;;;;;100264.32;;;;107499;1278;28703;-29
2022/05/26 12:30:53;;;;;;;2.20;0.80;;;;;;100250.05;;;;107502;1278;29168;-30
2022/05/26 12:33:20;;;;;;;2.50;0.80;;;;;;100245.89;;;;107521;1278;28745;-30
2022/05/26 12:36:20;;;;;;;2.30;0.80;;;;;;100252.46;;;;107516;1277;28777;-29
2022/05/26 12:39:21;;;;;;;0.90;0.70;;;;;;100258.63;;;;107538;1278;28960;-27
2022/05/26 12:42:30;;;;;;;1.80;0.80;;;;;;100250.41;;;;107531;1277;26101;-28
2022/05/26 12:45:12;;;;;;;1.70;0.60;;;;;;100250.86;;;;107538;1278;30244;-28
2022/05/26 12:48:02;;;;;;;2.00;0.70;;;;;;100252.36;;;;107546;1278;27890;-31
2022/05/26 12:50:31;;;;;;;2.20;0.80;;;;;;100254.98;;;;107480;1277;27702;-31
2022/05/26 12:53:18;;;;;;;1.20;0.50;;;;;;100258.00;;;;107551;1277;28677;-31
2022/05/26 12:55:54;;;;;;;2.30;0.60;;;;;;100255.91;;;;107550;1277;27644;-31
2022/05/26 12:58:27;;;;;;;2.40;0.80;;;;;;100248.42;;;;107568;1277;28947;-31
2022/05/26 13:00:54;;;;;;;1.90;0.80;;;;;;100246.80;;;;107565;1277;27565;-30
2022/05/26 13:03:44;;;;;;;1.90;0.90;;;;;;100235.89;;;;107555;1278;27217;-30
2022/05/26 13:06:36;;;;;;;3.60;0.80;;;;;;100239.35;;;;107502;1279;28778;-31
2022/05/26 13:09:16;;;;;;;4.50;0.90;;;;;;100237.52;;;;107515;1278;31048;-31
2022/05/26 13:11:55;;;;;;;2.20;0.80;;;;;;100234.89;;;;107556;1277;29994;-30
2022/05/26 13:14:36;;;;;;;1.70;0.70;;;;;;100232.75;;;;107586;1277;30668;-30
2022/05/26 13:17:25;;;;;;;2.60;0.90;;;;;;100238.75;;;;107546;1277;30792;-29
2022/05/26 13:19:54;;;;;;;2.40;0.90;;;;;;100245.27;;;;107502;1278;27425;-32
2022/05/26 13:22:34;;;;;;;2.60;0.90;;;;;;100232.05;;;;107590;1277;28636;-31
2022/05/26 13:25:11;;;;;;;2.10;0.70;;;;;;100233.39;;;;107547;1278;27779;-30
2022/05/26 13:28:05;;;;;;;3.60;0.90;;;;;;100231.49;;;;107312;1277;302030;-30
2022/05/26 13:33:27;;;;;;;1.70;0.80;;;;;;100229.23;;;;107506;1278;27711;-30
2022/05/26 13:36:00;;;;;;;1.50;0.70;;;;;;100223.84;;;;107544;1277;29850;-30
2022/05/26 13:38:37;;;;;;;2.10;0.80;;;;;;100220.10;;;;107536;1277;28806;-30
2022/05/26 13:41:08;;;;;;;1.90;0.80;;;;;;100222.65;;;;107551;1277;28570;-31
2022/05/26 13:43:38;;;;;;;1.80;0.80;;;;;;100226.14;;;;107413;1278;28749;-31
2022/05/26 13:46:06;;;;;;;1.40;0.60;;;;;;100221.88;;;;107490;1278;28812;-33
2022/05/26 13:48:44;;;;;;;1.50;0.70;;;;;;100220.38;;;;107521;1278;28711;-29
2022/05/26 13:51:21;;;;;;;2.10;0.80;;;;;;100221.14;;;;107544;1277;27534;-31
2022/05/26 13:54:31;;;;;;;3.00;0.80;;;;;;100223.94;;;;107500;1277;30991;-31
2022/05/26 13:57:02;;;;;;;2.90;0.80;;;;;;100229.08;;;;107498;1278;28774;-31
2022/05/26 13:59:35;;;;;;;2.30;0.80;;;;;;100226.34;;;;107463;1277;27768;-32
2022/05/26 14:02:30;;;;;;;2.40;0.80;;;;;;100225.84;;;;107524;1278;27771;-32
2022/05/26 14:05:11;;;;;;;2.50;0.80;;;;;;100223.59;;;;107490;1277;28876;-32
2022/05/26 14:07:42;;;;;;;2.00;0.90;;;;;;100227.09;;;;107507;1278;30737;-32
2022/05/26 14:10:23;;;;;;;2.20;0.80;;;;;;100232.39;;;;107472;1277;27942;-32
2022/05/26 14:13:09;;;;;;;2.10;0.80;;;;;;100235.69;;;;107366;1278;26173;-32
2022/05/26 14:16:14;;;;;;;2.30;0.90;;;;;;100245.86;;;;107505;1278;28697;-32
2022/05/26 14:18:45;;;;;;;2.70;1.00;;;;;;100300.75;;;;107421;1278;28696;-32
2022/05/26 14:21:12;;;;;;;2.30;0.90;;;;;;100318.40;;;;107489;1278;28682;-32